Time;durP1;ratioP1;P1;durP2;ratioP2;P2;SDS_P1;SDS_P2;PMS_P1;PMS_P2;Temp;Humidity;BMP_temperature;BMP_pressure;BME280_temperature;BME280_humidity;BME280_pressure;Samples;Min_cycle;Max_cycle;Signal;HPM_P1;HPM_P2
2021/03/03 00:01:26;;;;;;;1.50;1.08;;;22.30;40.50;;;;;;5063413;28;20028;-81
2021/03/03 00:03:52;;;;;;;2.25;0.98;;;22.20;40.50;;;;;;5064283;28;20054;-81
2021/03/03 00:06:18;;;;;;;2.60;1.13;;;22.20;40.40;;;;;;5061630;28;20025;-82
2021/03/03 00:08:43;;;;;;;1.42;0.93;;;22.20;40.40;;;;;;5061533;28;20026;-81
2021/03/03 00:11:09;;;;;;;3.22;1.35;;;22.20;40.40;;;;;;5061379;28;20029;-82
2021/03/03 00:13:35;;;;;;;3.03;1.38;;;22.20;40.50;;;;;;5054128;28;20029;-81
2021/03/03 00:16:00;;;;;;;1.70;1.15;;;22.20;40.50;;;;;;5044797;28;20029;-81
2021/03/03 00:18:26;;;;;;;1.80;1.20;;;22.20;40.40;;;;;;5058448;28;20033;-81
2021/03/03 00:20:51;;;;;;;1.23;1.08;;;22.20;40.40;;;;;;5056044;28;20018;-81
2021/03/03 00:23:17;;;;;;;2.80;1.10;;;22.20;40.40;;;;;;5057973;28;20037;-82
2021/03/03 00:25:43;;;;;;;1.50;1.02;;;22.10;40.40;;;;;;5062016;28;20128;-81
2021/03/03 00:28:08;;;;;;;3.80;0.85;;;22.20;40.40;;;;;;5062051;28;20063;-81
2021/03/03 00:30:34;;;;;;;1.80;1.08;;;22.10;40.40;;;;;;5057133;28;20043;-81
2021/03/03 00:32:59;;;;;;;1.73;1.00;;;22.10;40.40;;;;;;5058116;28;20037;-81
2021/03/03 00:35:25;;;;;;;1.85;1.25;;;22.10;40.40;;;;;;5052592;28;20033;-81
2021/03/03 00:37:50;;;;;;;4.80;1.45;;;22.10;40.40;;;;;;5052749;28;20037;-81
2021/03/03 00:40:16;;;;;;;1.50;1.33;;;22.10;40.40;;;;;;5040256;28;20090;-81
2021/03/03 00:42:42;;;;;;;1.90;1.27;;;22.10;40.50;;;;;;5051204;28;20029;-80
2021/03/03 00:45:08;;;;;;;2.65;1.40;;;22.10;40.40;;;;;;5052689;28;20028;-80
2021/03/03 00:47:34;;;;;;;1.40;0.98;;;22.10;40.40;;;;;;5056809;28;20048;-80
2021/03/03 00:50:00;;;;;;;2.30;1.23;;;22.00;40.40;;;;;;5053721;28;20021;-81
2021/03/03 00:52:25;;;;;;;1.80;1.20;;;22.00;40.40;;;;;;5043095;28;20083;-81
2021/03/03 00:54:51;;;;;;;3.83;1.13;;;22.00;40.40;;;;;;5061891;28;20086;-81
2021/03/03 00:57:17;;;;;;;1.40;0.90;;;22.00;40.40;;;;;;5056307;28;20116;-82
2021/03/03 00:59:42;;;;;;;2.72;1.02;;;22.00;40.40;;;;;;5064014;28;20427;-81
2021/03/03 01:02:08;;;;;;;1.42;1.30;;;22.00;40.40;;;;;;5048585;28;20037;-80
2021/03/03 01:04:33;;;;;;;2.25;1.38;;;22.00;40.40;;;;;;5054575;28;20031;-80
2021/03/03 01:06:59;;;;;;;3.03;1.15;;;22.00;40.40;;;;;;5051354;28;20032;-81
2021/03/03 01:09:24;;;;;;;1.40;1.00;;;22.00;40.40;;;;;;5045856;28;20365;-81
2021/03/03 01:11:50;;;;;;;2.30;1.27;;;22.00;40.40;;;;;;5071732;28;20051;-80
2021/03/03 01:14:16;;;;;;;1.52;1.00;;;21.90;40.40;;;;;;5054821;28;20030;-82
2021/03/03 01:16:49;;;;;;;3.05;1.30;;;21.90;40.40;;;;;;5055096;28;20579;-82
2021/03/03 01:19:14;;;;;;;2.20;1.58;;;21.90;40.40;;;;;;5052963;28;20118;-81
2021/03/03 01:21:40;;;;;;;3.25;1.17;;;21.90;40.40;;;;;;5054984;28;20041;-81
2021/03/03 01:24:06;;;;;;;2.20;1.05;;;21.90;40.50;;;;;;5050829;28;20025;-82
2021/03/03 01:26:32;;;;;;;2.40;1.33;;;21.90;40.40;;;;;;5048034;28;20029;-81
2021/03/03 01:28:57;;;;;;;2.25;1.25;;;21.90;40.40;;;;;;5063989;28;20490;-81
2021/03/03 01:31:23;;;;;;;1.60;0.90;;;21.90;40.40;;;;;;5055941;28;20028;-81
2021/03/03 01:33:48;;;;;;;1.27;0.90;;;21.90;40.40;;;;;;5061467;28;20045;-81
2021/03/03 01:36:14;;;;;;;2.20;1.00;;;21.80;40.40;;;;;;5039966;28;20440;-81
2021/03/03 01:38:39;;;;;;;1.92;1.40;;;21.80;40.40;;;;;;5048529;28;20037;-81
2021/03/03 01:41:05;;;;;;;1.23;1.00;;;21.80;40.40;;;;;;5062577;28;20039;-81
2021/03/03 01:43:34;;;;;;;3.10;1.33;;;21.80;40.40;;;;;;5052994;28;20025;-81
2021/03/03 01:45:59;;;;;;;1.52;0.98;;;21.80;40.30;;;;;;5044693;28;20021;-81
2021/03/03 01:48:25;;;;;;;2.25;1.45;;;21.80;40.30;;;;;;5058491;28;20047;-80
2021/03/03 01:50:51;;;;;;;2.00;1.48;;;21.80;40.40;;;;;;5057196;28;20362;-81
2021/03/03 01:53:16;;;;;;;1.50;1.00;;;21.80;40.40;;;;;;5061904;28;20055;-81
2021/03/03 01:55:42;;;;;;;2.20;1.17;;;21.80;40.40;;;;;;5040749;28;20022;-80
2021/03/03 01:58:09;;;;;;;1.95;1.55;;;21.80;40.30;;;;;;5059391;28;20525;-81
2021/03/03 02:00:34;;;;;;;1.80;1.00;;;21.80;40.30;;;;;;5051154;28;20025;-81
2021/03/03 02:03:00;;;;;;;1.30;0.98;;;21.70;40.30;;;;;;5054144;28;20080;-81
2021/03/03 02:05:28;;;;;;;1.50;0.70;;;21.70;40.30;;;;;;5055619;28;20058;-81
2021/03/03 02:08:07;;;;;;;0.88;0.73;;;21.70;40.30;;;;;;5053815;28;20435;-81
2021/03/03 02:10:42;;;;;;;1.55;1.20;;;21.70;40.30;;;;;;5057122;28;20020;-81
2021/03/03 02:13:19;;;;;;;1.40;0.80;;;21.70;40.30;;;;;;5061075;28;20100;-81
2021/03/03 02:15:47;;;;;;;1.65;0.95;;;21.70;40.30;;;;;;5065879;28;20029;-81
2021/03/03 02:18:13;;;;;;;4.25;1.25;;;21.70;40.30;;;;;;5054059;28;20396;-80
2021/03/03 02:21:07;;;;;;;1.63;0.90;;;21.70;40.30;;;;;;5056193;28;20171;-80
2021/03/03 02:23:54;;;;;;;1.98;1.00;;;21.70;40.30;;;;;;5031244;28;20032;-80
2021/03/03 02:26:22;;;;;;;1.50;0.98;;;21.70;40.30;;;;;;5060192;28;20128;-80
2021/03/03 02:28:50;;;;;;;3.45;1.27;;;21.70;40.30;;;;;;5050345;28;20025;-81
2021/03/03 02:31:18;;;;;;;1.20;1.00;;;21.70;40.30;;;;;;5057897;28;20034;-80
2021/03/03 02:33:45;;;;;;;1.77;1.05;;;21.70;40.30;;;;;;5065277;28;20032;-80
2021/03/03 02:36:12;;;;;;;1.75;1.08;;;21.70;40.30;;;;;;5048300;28;20569;-80
2021/03/03 02:38:42;;;;;;;2.80;1.27;;;21.70;40.30;;;;;;5051542;28;20051;-80
2021/03/03 02:41:15;;;;;;;2.03;1.10;;;21.70;40.30;;;;;;5058780;28;20566;-80
2021/03/03 02:43:42;;;;;;;1.90;1.08;;;21.60;40.30;;;;;;5043703;28;20075;-81
2021/03/03 02:46:09;;;;;;;1.65;1.00;;;21.60;40.30;;;;;;5044977;28;20021;-81
2021/03/03 02:48:34;;;;;;;3.53;1.20;;;21.60;40.30;;;;;;5064314;28;20025;-81
2021/03/03 02:51:00;;;;;;;3.40;1.40;;;21.60;40.20;;;;;;5045538;28;20195;-81
2021/03/03 02:53:26;;;;;;;1.75;0.85;;;21.60;40.30;;;;;;5067194;28;20370;-81
2021/03/03 02:55:51;;;;;;;1.40;1.00;;;21.60;40.20;;;;;;5056214;28;20033;-81
2021/03/03 02:58:20;;;;;;;1.67;1.08;;;21.60;40.20;;;;;;5058063;28;20043;-82
2021/03/03 03:00:48;;;;;;;1.85;0.85;;;21.60;40.20;;;;;;5054906;28;20036;-82
2021/03/03 03:03:19;;;;;;;2.45;1.38;;;21.60;40.20;;;;;;5055589;28;20048;-82
2021/03/03 03:05:58;;;;;;;2.17;1.15;;;21.60;40.20;;;;;;5057417;28;20308;-82
2021/03/03 03:08:26;;;;;;;1.30;0.90;;;21.60;40.20;;;;;;5054778;28;20053;-81
2021/03/03 03:10:52;;;;;;;4.18;1.05;;;21.50;40.20;;;;;;5048065;28;20028;-82
2021/03/03 03:13:20;;;;;;;1.90;1.02;;;21.50;40.20;;;;;;5061307;28;20051;-81
2021/03/03 03:15:49;;;;;;;1.85;1.08;;;21.60;40.20;;;;;;5062967;28;20032;-82
2021/03/03 03:18:18;;;;;;;1.90;0.68;;;21.50;40.20;;;;;;5063037;28;20021;-81
2021/03/03 03:20:47;;;;;;;1.33;0.88;;;21.50;40.20;;;;;;5057074;28;20056;-81
2021/03/03 03:23:13;;;;;;;1.85;0.90;;;21.50;40.20;;;;;;5059629;28;20037;-81
2021/03/03 03:25:40;;;;;;;2.05;0.90;;;21.50;40.20;;;;;;5046788;28;20546;-81
2021/03/03 03:28:06;;;;;;;2.33;1.08;;;21.50;40.20;;;;;;5047571;28;20118;-81
2021/03/03 03:30:32;;;;;;;1.52;1.20;;;21.50;40.20;;;;;;5053189;28;20076;-81
2021/03/03 03:32:59;;;;;;;1.33;0.80;;;21.50;40.20;;;;;;5049600;28;20060;-81
2021/03/03 03:35:27;;;;;;;1.48;1.20;;;21.50;40.20;;;;;;5058831;28;20059;-81
2021/03/03 03:37:53;;;;;;;4.80;1.15;;;21.50;40.20;;;;;;5052167;28;20057;-81
2021/03/03 03:40:20;;;;;;;3.47;1.30;;;21.50;40.20;;;;;;5061114;28;20058;-81
2021/03/03 03:42:46;;;;;;;2.35;1.25;;;21.50;40.20;;;;;;5048714;28;20024;-81
2021/03/03 03:45:13;;;;;;;2.60;0.82;;;21.50;40.20;;;;;;5043725;28;20037;-81
2021/03/03 03:47:42;;;;;;;1.23;0.82;;;21.50;40.20;;;;;;5057805;28;20048;-81
2021/03/03 03:50:08;;;;;;;2.10;1.30;;;21.50;40.20;;;;;;5059862;28;20021;-81
2021/03/03 03:52:35;;;;;;;1.75;1.20;;;21.40;40.20;;;;;;5058251;28;20025;-81
2021/03/03 03:55:01;;;;;;;2.05;1.08;;;21.40;40.10;;;;;;5055214;28;20029;-80
2021/03/03 03:57:27;;;;;;;1.67;0.95;;;21.40;40.20;;;;;;5058422;28;20020;-81
2021/03/03 03:59:53;;;;;;;2.28;0.80;;;21.40;40.20;;;;;;5055448;28;20029;-81
2021/03/03 04:02:18;;;;;;;1.70;1.00;;;21.40;40.20;;;;;;5059729;28;20036;-81
2021/03/03 04:04:44;;;;;;;1.27;1.02;;;21.40;40.20;;;;;;5054244;28;20033;-81
2021/03/03 04:07:10;;;;;;;1.10;0.70;;;21.40;40.10;;;;;;5055321;28;20036;-81
2021/03/03 04:09:36;;;;;;;1.95;1.20;;;21.40;40.20;;;;;;5057632;28;20033;-81
2021/03/03 04:12:02;;;;;;;1.48;0.80;;;21.40;40.20;;;;;;5053001;28;20043;-80
2021/03/03 04:14:27;;;;;;;1.30;0.73;;;21.40;40.20;;;;;;5043203;28;20076;-81
2021/03/03 04:16:53;;;;;;;1.83;0.98;;;21.40;40.20;;;;;;5054299;28;20036;-81
2021/03/03 04:19:19;;;;;;;1.30;0.68;;;21.40;40.20;;;;;;5045677;28;20476;-81
2021/03/03 04:21:45;;;;;;;2.80;1.08;;;21.40;40.20;;;;;;5058225;28;20076;-81
2021/03/03 04:24:10;;;;;;;1.30;0.95;;;21.30;40.10;;;;;;5056543;28;20036;-81
2021/03/03 04:26:36;;;;;;;1.30;0.73;;;21.40;40.10;;;;;;5046569;28;20091;-81
2021/03/03 04:29:02;;;;;;;1.55;0.90;;;21.40;40.10;;;;;;5060069;28;20033;-80
2021/03/03 04:31:27;;;;;;;2.17;0.82;;;21.30;40.10;;;;;;5059846;28;20021;-80
2021/03/03 04:33:53;;;;;;;1.70;0.90;;;21.30;40.20;;;;;;5060269;28;20021;-80
2021/03/03 04:36:19;;;;;;;1.73;0.73;;;21.40;40.10;;;;;;5061749;28;20104;-80
2021/03/03 04:38:44;;;;;;;1.88;0.77;;;21.40;40.20;;;;;;5059033;28;20020;-80
2021/03/03 04:41:10;;;;;;;2.05;0.90;;;21.30;40.20;;;;;;5059339;28;20037;-81
2021/03/03 04:43:35;;;;;;;1.60;1.13;;;21.30;40.10;;;;;;5060174;28;20032;-80
2021/03/03 04:46:02;;;;;;;3.67;1.15;;;21.30;40.10;;;;;;5051569;28;20610;-80
2021/03/03 04:48:28;;;;;;;2.03;1.10;;;21.30;40.20;;;;;;5052378;28;20439;-81
2021/03/03 04:50:53;;;;;;;0.93;0.70;;;21.30;40.10;;;;;;5048412;28;20021;-81
2021/03/03 04:53:19;;;;;;;1.45;0.73;;;21.30;40.10;;;;;;5050182;28;20028;-81
2021/03/03 04:55:45;;;;;;;3.08;0.90;;;21.30;40.10;;;;;;5056127;28;20028;-80
2021/03/03 04:58:11;;;;;;;1.95;1.08;;;21.30;40.10;;;;;;5049109;28;20087;-80
2021/03/03 05:00:36;;;;;;;1.17;0.73;;;21.30;40.10;;;;;;5055997;28;20547;-80
2021/03/03 05:03:02;;;;;;;1.20;0.80;;;21.30;40.10;;;;;;5062566;28;20070;-81
2021/03/03 05:05:28;;;;;;;1.40;1.02;;;21.20;40.10;;;;;;5053747;28;20021;-80
2021/03/03 05:07:54;;;;;;;1.67;0.93;;;21.20;40.10;;;;;;5051179;28;20478;-80
2021/03/03 05:10:19;;;;;;;1.40;1.02;;;21.20;40.10;;;;;;5035601;28;20031;-80
2021/03/03 05:12:46;;;;;;;1.65;1.00;;;21.20;40.10;;;;;;5060054;28;20461;-81
2021/03/03 05:15:12;;;;;;;1.73;0.80;;;21.20;40.10;;;;;;5060921;28;20036;-81
2021/03/03 05:17:38;;;;;;;1.35;0.60;;;21.20;40.10;;;;;;5047521;28;20060;-81
2021/03/03 05:20:05;;;;;;;1.63;0.75;;;21.20;40.10;;;;;;5068399;28;20017;-81
2021/03/03 05:22:31;;;;;;;1.77;0.90;;;21.20;40.10;;;;;;5050623;28;20099;-81
2021/03/03 05:24:56;;;;;;;0.90;0.50;;;21.20;40.10;;;;;;5046738;28;20200;-81
2021/03/03 05:27:22;;;;;;;1.05;0.77;;;21.20;40.10;;;;;;5055818;28;20021;-81
2021/03/03 05:29:47;;;;;;;1.40;0.90;;;21.20;40.10;;;;;;5055331;28;20031;-81
2021/03/03 05:32:13;;;;;;;1.95;0.90;;;21.20;40.10;;;;;;5053402;28;20383;-81
2021/03/03 05:34:38;;;;;;;1.58;0.70;;;21.20;40.10;;;;;;5054646;28;20044;-81
2021/03/03 05:37:04;;;;;;;1.48;1.00;;;21.20;40.20;;;;;;5046930;28;20103;-80
2021/03/03 05:39:29;;;;;;;1.73;0.60;;;21.20;40.10;;;;;;5055797;28;20020;-80
2021/03/03 05:42:01;;;;;;;1.27;0.60;;;21.20;40.10;;;;;;5060160;28;20024;-80
2021/03/03 05:44:28;;;;;;;1.40;0.65;;;21.20;40.10;;;;;;5052297;28;20154;-80
2021/03/03 05:46:56;;;;;;;1.27;0.77;;;21.20;40.10;;;;;;5060374;28;20477;-80
2021/03/03 05:49:25;;;;;;;1.55;0.90;;;21.20;40.10;;;;;;5054542;28;20102;-80
2021/03/03 05:51:54;;;;;;;0.90;0.50;;;21.10;40.10;;;;;;5037834;28;20022;-80
2021/03/03 05:54:21;;;;;;;2.00;0.80;;;21.20;40.10;;;;;;5056161;28;20060;-80
2021/03/03 05:56:48;;;;;;;1.20;0.60;;;21.10;40.10;;;;;;5051053;28;20701;-80
2021/03/03 05:59:16;;;;;;;1.30;0.80;;;21.10;40.60;;;;;;5052668;28;20034;-80
2021/03/03 06:01:44;;;;;;;1.50;0.47;;;21.10;40.10;;;;;;5042644;28;20028;-80
2021/03/03 06:04:10;;;;;;;1.65;0.77;;;21.10;40.00;;;;;;5054224;28;20041;-80
2021/03/03 06:06:40;;;;;;;1.65;0.70;;;21.10;40.00;;;;;;5056151;28;20039;-80
2021/03/03 06:09:06;;;;;;;2.08;1.02;;;21.10;40.00;;;;;;5060593;28;20063;-80
2021/03/03 06:11:31;;;;;;;1.70;0.88;;;21.10;40.00;;;;;;5051996;28;20029;-80
2021/03/03 06:14:00;;;;;;;1.58;0.70;;;21.10;40.10;;;;;;5052023;28;20056;-81
2021/03/03 06:16:26;;;;;;;1.25;0.70;;;21.10;40.10;;;;;;5027491;28;20067;-81
2021/03/03 06:18:53;;;;;;;3.00;0.95;;;21.10;40.00;;;;;;5054046;28;20318;-80
2021/03/03 06:21:28;;;;;;;1.42;0.80;;;21.10;40.10;;;;;;5052274;28;20391;-81
2021/03/03 06:24:01;;;;;;;1.40;0.80;;;21.10;40.10;;;;;;5055358;28;20108;-80
2021/03/03 06:26:27;;;;;;;1.17;1.02;;;21.10;40.10;;;;;;5064908;28;20082;-80
2021/03/03 06:28:53;;;;;;;1.75;0.77;;;21.10;40.10;;;;;;5053755;28;20025;-81
2021/03/03 06:31:35;;;;;;;1.27;0.60;;;21.00;40.00;;;;;;5051784;28;20029;-80
2021/03/03 06:34:24;;;;;;;1.90;0.82;;;21.10;40.10;;;;;;5055461;28;20095;-81
2021/03/03 06:36:55;;;;;;;1.55;0.90;;;21.00;40.00;;;;;;5068014;28;20028;-83
2021/03/03 06:39:24;;;;;;;1.10;0.65;;;21.00;40.10;;;;;;5063496;28;20046;-80
2021/03/03 06:41:58;;;;;;;0.98;0.55;;;21.00;40.00;;;;;;5055428;28;20029;-81
2021/03/03 06:44:25;;;;;;;1.10;0.60;;;21.00;40.00;;;;;;5064870;28;20405;-81
2021/03/03 06:47:09;;;;;;;1.15;0.75;;;21.00;40.00;;;;;;5057816;28;20074;-81
2021/03/03 06:49:35;;;;;;;1.30;0.50;;;21.00;40.10;;;;;;5057767;28;20033;-81
2021/03/03 06:52:00;;;;;;;2.10;0.52;;;21.10;40.00;;;;;;5055301;28;20040;-80
2021/03/03 06:54:26;;;;;;;1.02;0.60;;;21.20;40.00;;;;;;5052868;28;20029;-81
2021/03/03 06:56:53;;;;;;;1.70;0.57;;;21.40;39.80;;;;;;5061086;28;20029;-80
2021/03/03 06:59:26;;;;;;;1.45;0.60;;;21.50;39.50;;;;;;5063061;28;20033;-81
2021/03/03 07:01:56;;;;;;;1.00;0.40;;;21.60;39.30;;;;;;5059200;28;20166;-80
2021/03/03 07:04:27;;;;;;;1.00;0.60;;;21.70;39.20;;;;;;5064832;28;20029;-80
2021/03/03 07:07:11;;;;;;;1.58;0.70;;;21.80;39.00;;;;;;5063219;28;20048;-80
2021/03/03 07:09:59;;;;;;;0.88;0.50;;;21.90;38.90;;;;;;5064809;28;20116;-81
2021/03/03 07:12:27;;;;;;;1.23;0.57;;;22.00;38.80;;;;;;5047280;28;20036;-80
2021/03/03 07:15:01;;;;;;;1.38;0.65;;;22.00;38.80;;;;;;5040614;28;20036;-81
2021/03/03 07:17:32;;;;;;;1.63;0.57;;;22.00;38.80;;;;;;5049835;28;20052;-80
2021/03/03 07:20:06;;;;;;;1.70;0.63;;;22.10;38.80;;;;;;5060997;28;20021;-81
2021/03/03 07:22:37;;;;;;;0.98;0.52;;;22.10;38.80;;;;;;5055991;28;20031;-82
2021/03/03 07:25:05;;;;;;;1.00;0.40;;;22.10;38.80;;;;;;5066055;28;20542;-82
2021/03/03 07:27:33;;;;;;;1.40;0.55;;;22.10;38.80;;;;;;5054569;28;20028;-82
2021/03/03 07:30:11;;;;;;;1.10;0.50;;;22.10;38.80;;;;;;5064268;28;20030;-81
2021/03/03 07:32:37;;;;;;;0.85;0.43;;;22.10;38.80;;;;;;5063139;28;20544;-82
2021/03/03 07:35:05;;;;;;;1.80;0.70;;;22.10;38.90;;;;;;5059732;28;20067;-81
2021/03/03 07:37:53;;;;;;;2.53;0.60;;;22.10;38.90;;;;;;5061515;28;20057;-81
2021/03/03 07:40:25;;;;;;;1.13;0.60;;;22.10;38.90;;;;;;5060602;28;20024;-81
2021/03/03 07:43:10;;;;;;;1.23;0.55;;;22.10;38.90;;;;;;5062279;28;20089;-80
2021/03/03 07:45:40;;;;;;;0.90;0.60;;;22.10;38.90;;;;;;5029693;28;20434;-80
2021/03/03 07:48:07;;;;;;;1.02;0.57;;;22.10;39.00;;;;;;5048267;28;20024;-81
2021/03/03 07:50:34;;;;;;;1.50;0.60;;;22.10;39.20;;;;;;5059039;28;20112;-80
2021/03/03 07:52:59;;;;;;;1.00;0.60;;;22.20;39.50;;;;;;5054890;28;20033;-80
2021/03/03 07:55:25;;;;;;;2.35;0.82;;;22.30;39.70;;;;;;5065417;28;20039;-79
2021/03/03 07:57:56;;;;;;;1.20;0.88;;;22.20;40.00;;;;;;5060830;28;20025;-78
2021/03/03 08:00:31;;;;;;;1.77;1.05;;;22.20;40.00;;;;;;5053557;28;20082;-82
2021/03/03 08:02:58;;;;;;;2.30;0.75;;;22.30;40.40;;;;;;5059844;28;20112;-80
2021/03/03 08:05:36;;;;;;;2.42;0.82;;;22.30;40.50;;;;;;5058624;28;20034;-80
2021/03/03 08:08:14;;;;;;;3.17;0.95;;;22.30;40.40;;;;;;5061755;28;20032;-79
2021/03/03 08:10:41;;;;;;;1.40;0.95;;;22.30;40.40;;;;;;5052914;28;20074;-79
2021/03/03 08:13:17;;;;;;;2.88;0.73;;;22.30;40.60;;;;;;5054008;28;20035;-80
2021/03/03 08:15:44;;;;;;;1.58;0.73;;;22.30;40.80;;;;;;5035644;28;20567;-79
2021/03/03 08:18:24;;;;;;;2.60;0.93;;;22.30;40.70;;;;;;5056133;28;20040;-80
2021/03/03 08:21:01;;;;;;;4.75;1.02;;;22.30;40.80;;;;;;5058453;28;20241;-80
2021/03/03 08:23:33;;;;;;;2.15;0.80;;;22.30;40.80;;;;;;5059224;28;20036;-80
2021/03/03 08:25:59;;;;;;;1.67;0.90;;;22.30;40.80;;;;;;5065947;28;20005;-80
2021/03/03 08:28:31;;;;;;;3.97;1.30;;;22.30;40.90;;;;;;5057094;28;20026;-79
2021/03/03 08:31:09;;;;;;;3.00;1.23;;;22.30;40.70;;;;;;5057793;28;20029;-80
2021/03/03 08:33:39;;;;;;;1.63;1.10;;;22.30;40.80;;;;;;5059293;28;20041;-80
2021/03/03 08:36:07;;;;;;;1.45;0.90;;;22.30;40.80;;;;;;5057258;28;20033;-81
2021/03/03 08:38:33;;;;;;;4.97;1.13;;;22.30;40.70;;;;;;5055816;28;20033;-81
2021/03/03 08:41:14;;;;;;;3.30;1.23;;;22.30;40.60;;;;;;5052897;28;20048;-80
2021/03/03 08:43:41;;;;;;;2.08;1.20;;;22.30;40.70;;;;;;5056950;28;20100;-84
2021/03/03 08:46:29;;;;;;;2.17;1.00;;;22.30;40.50;;;;;;5059710;28;20058;-84
2021/03/03 08:48:55;;;;;;;1.35;1.00;;;22.40;40.90;;;;;;5043331;28;20028;-79
2021/03/03 08:51:22;;;;;;;2.33;0.73;;;22.40;40.80;;;;;;5060450;28;20041;-79
2021/03/03 08:53:55;;;;;;;3.00;1.75;;;22.40;40.90;;;;;;5058493;28;20119;-79
2021/03/03 08:56:43;;;;;;;1.95;1.10;;;22.40;40.90;;;;;;5041183;28;20403;-79
2021/03/03 08:59:10;;;;;;;2.90;0.95;;;22.40;40.90;;;;;;5064258;28;20100;-81
2021/03/03 09:01:57;;;;;;;2.15;1.27;;;22.40;41.10;;;;;;5056990;28;20053;-80
2021/03/03 09:04:28;;;;;;;6.75;1.50;;;22.40;41.00;;;;;;5060744;28;20057;-81
2021/03/03 09:07:08;;;;;;;1.92;1.50;;;22.30;41.30;;;;;;5040350;28;20036;-81
2021/03/03 09:09:39;;;;;;;2.63;1.38;;;22.20;41.30;;;;;;5062968;28;20033;-80
2021/03/03 09:12:10;;;;;;;2.42;1.40;;;22.20;41.30;;;;;;5052621;28;20036;-80
2021/03/03 09:14:37;;;;;;;1.77;1.23;;;22.20;41.20;;;;;;5055647;28;20041;-81
2021/03/03 09:17:05;;;;;;;3.88;1.63;;;22.20;41.20;;;;;;5062035;28;20032;-80
2021/03/03 09:19:33;;;;;;;3.13;1.90;;;22.10;41.10;;;;;;5063939;28;20491;-81
2021/03/03 09:22:00;;;;;;;2.97;1.73;;;22.10;41.10;;;;;;5033167;28;20067;-80
2021/03/03 09:24:26;;;;;;;4.35;1.92;;;22.10;41.00;;;;;;5055671;28;20095;-80
2021/03/03 09:27:08;;;;;;;2.55;2.13;;;22.10;41.00;;;;;;5057998;28;20103;-80
2021/03/03 09:29:36;;;;;;;5.63;2.17;;;22.10;41.00;;;;;;5053400;28;20048;-80
2021/03/03 09:32:10;;;;;;;3.30;2.30;;;22.10;40.90;;;;;;5061960;28;20043;-80
2021/03/03 09:34:42;;;;;;;2.17;1.80;;;22.10;40.90;;;;;;5063190;28;20599;-80
2021/03/03 09:37:08;;;;;;;4.07;2.40;;;22.10;40.90;;;;;;5052949;28;20040;-81
2021/03/03 09:39:33;;;;;;;2.65;2.40;;;22.10;40.90;;;;;;5053715;28;20025;-80
2021/03/03 09:42:09;;;;;;;2.63;1.95;;;22.10;40.80;;;;;;5050201;28;20052;-81
2021/03/03 09:44:54;;;;;;;3.85;2.58;;;22.10;40.80;;;;;;5060492;28;20024;-81
2021/03/03 09:47:31;;;;;;;5.50;2.00;;;22.10;40.70;;;;;;5056561;28;20021;-80
2021/03/03 09:49:57;;;;;;;2.55;2.17;;;22.10;40.70;;;;;;5052661;28;20021;-80
2021/03/03 09:52:40;;;;;;;3.28;1.83;;;22.10;40.70;;;;;;5052977;28;20081;-80
2021/03/03 09:55:09;;;;;;;3.30;2.67;;;22.10;40.40;;;;;;5043539;28;20200;-79
2021/03/03 09:57:35;;;;;;;2.45;2.17;;;22.10;40.30;;;;;;5051167;28;20113;-79
2021/03/03 10:00:02;;;;;;;4.03;2.75;;;22.20;40.30;;;;;;5058095;28;20112;-80
2021/03/03 10:02:29;;;;;;;2.25;1.77;;;22.20;40.30;;;;;;5037251;28;20484;-80
2021/03/03 10:04:58;;;;;;;2.75;1.92;;;22.30;40.40;;;;;;5053118;28;20538;-81
2021/03/03 10:07:26;;;;;;;4.57;1.83;;;22.30;40.40;;;;;;5055075;28;20021;-80
2021/03/03 10:10:00;;;;;;;3.10;2.40;;;22.30;40.20;;;;;;5061212;28;20029;-79
2021/03/03 10:12:33;;;;;;;3.35;2.35;;;22.30;40.40;;;;;;5049772;28;20728;-79
2021/03/03 10:15:08;;;;;;;4.57;2.38;;;22.30;40.30;;;;;;5053651;28;20033;-79
2021/03/03 10:17:34;;;;;;;2.25;1.40;;;22.30;40.30;;;;;;5056383;28;20029;-79
2021/03/03 10:20:00;;;;;;;3.65;1.85;;;22.30;40.40;;;;;;5060095;28;20044;-79
2021/03/03 10:22:27;;;;;;;2.45;1.98;;;22.30;40.60;;;;;;5053133;28;20037;-78
2021/03/03 10:25:06;;;;;;;2.70;2.10;;;22.40;40.60;;;;;;5040052;28;20084;-79
2021/03/03 10:27:38;;;;;;;2.25;1.50;;;22.40;40.40;;;;;;5056550;28;20071;-79
2021/03/03 10:30:26;;;;;;;3.00;2.00;;;22.40;40.40;;;;;;5060417;28;20040;-78
2021/03/03 10:32:55;;;;;;;2.17;1.55;;;22.40;40.40;;;;;;5056996;28;20021;-79
2021/03/03 10:35:22;;;;;;;4.35;2.15;;;22.40;40.50;;;;;;5057486;28;20032;-79
2021/03/03 10:37:49;;;;;;;2.40;1.77;;;22.40;40.50;;;;;;5056730;28;20051;-79
2021/03/03 10:40:16;;;;;;;2.83;2.08;;;22.40;40.60;;;;;;5058317;28;20024;-80
2021/03/03 10:42:42;;;;;;;2.17;1.52;;;22.50;40.70;;;;;;5057586;28;20039;-79
2021/03/03 10:45:24;;;;;;;4.57;2.03;;;22.40;40.70;;;;;;5052247;28;20112;-78
2021/03/03 10:47:51;;;;;;;3.65;1.50;;;22.50;40.70;;;;;;5055184;28;20029;-79
2021/03/03 10:50:20;;;;;;;3.65;1.85;;;22.50;40.90;;;;;;5058565;28;20068;-80
2021/03/03 10:53:00;;;;;;;3.53;1.70;;;22.60;40.90;;;;;;5058252;28;20033;-79
2021/03/03 10:55:32;;;;;;;2.60;1.73;;;22.60;40.90;;;;;;5054609;28;20040;-80
2021/03/03 10:58:09;;;;;;;4.32;1.90;;;22.60;40.90;;;;;;5053065;28;20071;-79
2021/03/03 11:01:04;;;;;;;2.70;1.90;;;22.60;40.80;;;;;;5051506;28;20333;-77
2021/03/03 11:03:30;;;;;;;1.92;1.38;;;22.60;40.80;;;;;;5058705;28;20039;-81
2021/03/03 11:05:59;;;;;;;2.85;1.55;;;22.60;40.70;;;;;;5060261;28;20404;-82
2021/03/03 11:08:26;;;;;;;2.67;1.73;;;22.60;40.70;;;;;;5051993;28;20116;-79
2021/03/03 11:11:03;;;;;;;2.80;1.67;;;22.60;40.70;;;;;;5060227;28;20031;-80
2021/03/03 11:13:28;;;;;;;2.33;1.80;;;22.60;40.70;;;;;;5059891;28;20047;-79
2021/03/03 11:15:54;;;;;;;2.83;1.75;;;22.60;40.70;;;;;;5060596;28;20033;-78
2021/03/03 11:18:20;;;;;;;2.85;1.58;;;22.60;40.70;;;;;;5059568;28;20036;-80
2021/03/03 11:20:45;;;;;;;1.88;1.63;;;22.60;40.80;;;;;;5064052;28;20519;-80
2021/03/03 11:23:11;;;;;;;1.80;1.38;;;22.60;40.90;;;;;;5057331;28;20028;-81
2021/03/03 11:25:36;;;;;;;2.45;1.90;;;22.70;41.00;;;;;;5062450;28;20078;-80
2021/03/03 11:28:03;;;;;;;2.15;1.75;;;22.70;41.10;;;;;;5065589;28;20032;-82
2021/03/03 11:30:29;;;;;;;3.05;1.98;;;22.70;41.30;;;;;;5061490;28;20221;-82
2021/03/03 11:32:54;;;;;;;2.35;1.77;;;22.70;41.30;;;;;;5063599;28;20035;-83
2021/03/03 11:35:20;;;;;;;1.90;1.50;;;22.70;41.40;;;;;;5058163;28;20052;-82
2021/03/03 11:37:47;;;;;;;4.15;1.92;;;22.70;41.50;;;;;;5062753;28;20048;-81
2021/03/03 11:40:13;;;;;;;3.05;1.88;;;22.70;41.50;;;;;;5060565;28;20032;-81
2021/03/03 11:42:57;;;;;;;4.38;2.40;;;22.70;41.40;;;;;;5063800;28;20039;-81
2021/03/03 11:45:41;;;;;;;4.18;1.95;;;22.70;41.40;;;;;;5062303;28;20036;-82
2021/03/03 11:48:08;;;;;;;2.80;2.00;;;22.70;41.60;;;;;;5059415;28;20039;-80
2021/03/03 11:50:34;;;;;;;3.15;2.00;;;22.80;41.70;;;;;;5064428;28;20032;-81
2021/03/03 11:52:59;;;;;;;4.05;2.08;;;22.80;41.30;;;;;;5062456;28;20296;-80
2021/03/03 11:55:25;;;;;;;3.38;2.47;;;22.80;41.30;;;;;;5058525;28;20028;-80
2021/03/03 11:57:51;;;;;;;4.53;2.53;;;22.80;41.70;;;;;;5063016;28;20027;-80
2021/03/03 12:00:17;;;;;;;3.38;2.13;;;22.80;41.70;;;;;;5062518;28;20025;-80
2021/03/03 12:02:42;;;;;;;2.60;2.38;;;22.80;41.70;;;;;;5062011;28;20033;-82
2021/03/03 12:05:09;;;;;;;3.50;2.30;;;22.80;41.40;;;;;;5038701;28;20063;-82
2021/03/03 12:07:35;;;;;;;2.22;2.03;;;22.80;41.60;;;;;;5061467;28;20066;-82
2021/03/03 12:10:01;;;;;;;4.25;2.90;;;22.90;41.00;;;;;;5065442;28;20032;-83
2021/03/03 12:12:27;;;;;;;3.58;2.15;;;22.90;40.90;;;;;;5045466;28;20040;-82
2021/03/03 12:14:52;;;;;;;3.92;2.08;;;22.90;40.90;;;;;;5061616;28;20025;-81
2021/03/03 12:17:18;;;;;;;4.03;2.28;;;22.90;41.20;;;;;;5039922;28;20052;-81
2021/03/03 12:19:43;;;;;;;4.55;2.08;;;22.90;41.00;;;;;;5057979;28;20055;-81
2021/03/03 12:22:09;;;;;;;4.32;2.58;;;22.90;41.10;;;;;;5060242;28;20546;-81
2021/03/03 12:24:35;;;;;;;3.20;2.10;;;22.90;41.10;;;;;;5059016;28;20043;-82
2021/03/03 12:27:00;;;;;;;3.30;2.28;;;23.00;41.80;;;;;;5045104;28;20114;-81
2021/03/03 12:29:26;;;;;;;3.42;2.28;;;23.00;42.30;;;;;;5060326;28;20058;-81
2021/03/03 12:31:52;;;;;;;2.35;2.15;;;23.00;42.50;;;;;;5057584;28;20393;-80
2021/03/03 12:34:17;;;;;;;5.18;2.78;;;23.00;42.80;;;;;;5057988;28;20033;-82
2021/03/03 12:36:43;;;;;;;3.38;2.70;;;23.00;42.80;;;;;;5055955;28;20025;-81
2021/03/03 12:39:09;;;;;;;2.17;1.58;;;23.00;42.60;;;;;;5060039;28;20040;-82
2021/03/03 12:41:34;;;;;;;4.30;2.40;;;23.00;42.90;;;;;;5060288;28;20029;-80
2021/03/03 12:44:00;;;;;;;5.28;2.70;;;23.00;42.70;;;;;;5059038;28;20084;-81
2021/03/03 12:46:26;;;;;;;3.47;2.47;;;23.00;42.40;;;;;;5059821;28;20028;-80
2021/03/03 12:48:51;;;;;;;3.72;2.33;;;23.00;42.70;;;;;;5061262;28;20088;-80
2021/03/03 12:51:17;;;;;;;3.22;2.70;;;23.00;42.50;;;;;;5042296;28;20095;-82
2021/03/03 12:53:45;;;;;;;4.40;2.40;;;23.10;42.10;;;;;;5037674;28;20591;-82
2021/03/03 12:56:11;;;;;;;5.90;2.70;;;23.10;42.60;;;;;;5057426;28;20051;-81